Time;durP1;ratioP1;P1;durP2;ratioP2;P2;SDS_P1;SDS_P2;PMS_P1;PMS_P2;Temp;Humidity;BMP_temperature;BMP_pressure;BME280_temperature;BME280_humidity;BME280_pressure;Samples;Min_cycle;Max_cycle;Signal;HPM_P1;HPM_P2
2022/01/27 02:42:35;;;;;;;18.40;8.78;;;;;;;0.76;58.71;99771.55;1786358;79;22988;-55
2022/01/27 02:45:16;;;;;;;19.10;8.48;;;;;;;2.13;54.60;99771.91;1762326;80;21347;-55
2022/01/27 02:47:43;;;;;;;19.60;8.78;;;;;;;2.22;54.06;99767.08;1754070;80;22867;-53
2022/01/27 02:50:10;;;;;;;18.13;8.63;;;;;;;2.19;54.27;99776.65;1765626;80;21411;-53
2022/01/27 02:52:38;;;;;;;20.55;9.10;;;;;;;2.20;54.45;99774.02;1762919;80;21750;-53
2022/01/27 02:55:06;;;;;;;15.93;8.08;;;;;;;2.21;54.90;99781.39;1766964;80;21482;-53
2022/01/27 02:57:33;;;;;;;14.30;8.20;;;;;;;2.27;55.23;99774.41;1768309;80;20917;-53
2022/01/27 03:00:00;;;;;;;18.10;8.23;;;;;;;2.34;55.23;99776.53;1762320;80;22461;-53
2022/01/27 03:02:27;;;;;;;17.65;8.45;;;;;;;2.32;55.64;99773.95;1757152;80;21358;-53
2022/01/27 03:04:54;;;;;;;15.93;8.33;;;;;;;2.36;55.54;99776.53;1763244;80;21049;-53
2022/01/27 03:07:21;;;;;;;17.92;8.80;;;;;;;2.36;55.76;99768.75;1760952;79;21478;-53
2022/01/27 03:09:47;;;;;;;20.60;8.43;;;;;;;2.42;56.16;99777.78;1770024;80;21347;-53
2022/01/27 03:12:16;;;;;;;18.42;9.20;;;;;;;2.45;55.94;99768.23;1760713;80;21658;-53
2022/01/27 03:14:43;;;;;;;19.10;9.30;;;;;;;2.46;55.83;99754.37;1767409;80;21557;-54
2022/01/27 03:17:10;;;;;;;21.35;9.95;;;;;;;2.46;56.20;99748.33;1763335;80;21512;-54
2022/01/27 03:19:37;;;;;;;13.95;8.13;;;;;;;2.37;55.36;99747.95;1767548;80;21414;-54
2022/01/27 03:22:05;;;;;;;20.40;10.57;;;;;;;2.38;55.49;99742.34;1767064;80;21422;-55
2022/01/27 03:24:32;;;;;;;18.40;10.28;;;;;;;2.43;56.18;99743.14;1759965;80;22902;-54
2022/01/27 03:26:59;;;;;;;19.90;9.77;;;;;;;2.36;55.32;99743.65;1768306;80;21418;-54
2022/01/27 03:29:26;;;;;;;16.07;9.23;;;;;;;2.41;55.59;99736.70;1766785;80;21587;-54
2022/01/27 03:31:53;;;;;;;16.97;9.50;;;;;;;2.46;55.95;99743.98;1766104;80;21492;-54
2022/01/27 03:34:20;;;;;;;22.98;9.38;;;;;;;2.36;55.37;99740.20;1765742;80;20953;-54
2022/01/27 03:36:47;;;;;;;22.05;9.73;;;;;;;2.40;55.90;99749.68;1758954;78;22532;-54
2022/01/27 03:39:21;;;;;;;19.75;8.98;;;;;;;2.33;55.11;99741.06;1759318;80;21470;-54
2022/01/27 03:41:49;;;;;;;17.87;8.95;;;;;;;2.34;55.54;99741.06;1757934;80;21479;-54
2022/01/27 03:44:11;;;;;;;16.15;8.65;;;;;;;2.30;55.25;99738.07;1769311;80;21505;-54
2022/01/27 03:46:37;;;;;;;15.03;8.98;;;;;;;2.26;55.22;99733.78;1760341;80;21462;-54
2022/01/27 03:49:04;;;;;;;15.78;9.18;;;;;;;2.25;55.49;99728.59;1766424;80;22637;-54
2022/01/27 03:51:31;;;;;;;16.90;9.07;;;;;;;2.22;55.56;99722.98;1758837;80;21073;-54
2022/01/27 03:53:58;;;;;;;19.23;9.08;;;;;;;2.24;55.90;99723.86;1752717;80;21857;-54
2022/01/27 03:56:25;;;;;;;14.95;8.38;;;;;;;2.18;55.50;99722.58;1758688;80;21525;-54
2022/01/27 03:58:52;;;;;;;12.40;7.70;;;;;;;2.21;55.43;99718.67;1762925;80;21426;-54
2022/01/27 04:01:18;;;;;;;17.80;9.53;;;;;;;2.20;55.29;99710.90;1759540;80;21429;-54
2022/01/27 04:03:45;;;;;;;20.97;8.27;;;;;;;2.16;55.51;99707.47;1703733;83;21576;-54
2022/01/27 04:06:14;;;;;;;11.28;7.00;;;;;;;2.08;55.62;99711.86;1697184;83;21443;-54
2022/01/27 04:08:42;;;;;;;12.93;7.70;;;;;;;1.97;55.64;99709.78;1693802;83;21354;-54
2022/01/27 04:11:09;;;;;;;15.95;9.08;;;;;;;1.89;55.67;99713.72;1704829;83;21462;-54
2022/01/27 04:13:36;;;;;;;13.53;7.62;;;;;;;1.79;55.78;99712.03;1704681;83;22541;-55
2022/01/27 04:16:04;;;;;;;18.12;8.55;;;;;;;1.71;55.92;99719.86;1693171;83;21482;-54
2022/01/27 04:18:31;;;;;;;15.25;7.65;;;;;;;1.68;56.12;99712.13;1691428;83;21521;-54
2022/01/27 04:20:58;;;;;;;13.45;8.00;;;;;;;1.55;55.55;99708.28;1703954;83;21454;-54
2022/01/27 04:23:25;;;;;;;15.95;8.08;;;;;;;1.46;55.23;99699.26;1713082;82;21492;-54
2022/01/27 04:25:52;;;;;;;17.45;7.03;;;;;;;1.41;55.29;99702.30;1700287;83;21668;-54
2022/01/27 04:28:29;;;;;;;11.48;6.90;;;;;;;1.32;55.63;99700.62;1701619;83;21369;-54
2022/01/27 04:30:53;;;;;;;12.37;7.67;;;;;;;1.25;55.44;99703.25;1714674;83;21484;-54
2022/01/27 04:33:22;;;;;;;12.58;7.10;;;;;;;1.11;55.55;99692.92;1709456;82;21451;-54
2022/01/27 04:35:49;;;;;;;11.70;6.67;;;;;;;1.04;55.71;99687.36;1705895;83;21471;-54
2022/01/27 04:38:41;;;;;;;12.70;7.78;;;;;;;1.00;55.65;99680.04;1714052;82;22896;-54
2022/01/27 04:43:55;;;;;;;14.18;7.17;;;;;;;1.04;55.93;99670.09;1686346;84;21498;-54
2022/01/27 04:46:26;;;;;;;41.13;19.25;;;;;;;1.04;56.05;99679.59;1676781;82;21471;-54
2022/01/27 04:48:59;;;;;;;71.10;32.93;;;;;;;1.06;56.27;99683.89;1681916;83;20923;-54
2022/01/27 04:51:23;;;;;;;43.33;22.30;;;;;;;0.99;55.79;99686.06;1673828;82;22558;-54
2022/01/27 04:53:58;;;;;;;39.03;19.30;;;;;;;0.93;55.97;99677.89;1685479;83;21432;-54
2022/01/27 04:56:21;;;;;;;41.85;20.65;;;;;;;0.93;55.88;99671.41;1675009;82;21461;-54
2022/01/27 04:58:52;;;;;;;27.48;16.87;;;;;;;0.88;55.63;99677.47;1693734;82;21618;-53
2022/01/27 05:01:18;;;;;;;23.85;15.18;;;;;;;0.84;55.86;99680.94;1686937;84;21460;-53
2022/01/27 05:03:51;;;;;;;10.03;8.50;;;;;;;0.76;55.79;99679.23;1683209;82;22977;-54
2022/01/27 05:06:14;;;;;;;10.38;6.25;;;;;;;0.72;56.39;99679.25;1679203;82;21358;-55
2022/01/27 05:08:42;;;;;;;9.13;5.75;;;;;;;0.66;56.08;99674.95;1687090;82;21407;-55
2022/01/27 05:11:35;;;;;;;11.55;6.28;;;;;;;0.68;56.29;99670.63;1682206;83;21521;-54
2022/01/27 05:13:46;;;;;;;10.10;6.35;;;;;;;0.68;56.67;99668.45;1682682;82;21519;-54
2022/01/27 05:16:07;;;;;;;8.10;5.72;;;;;;;0.65;56.20;99671.06;1683787;82;22527;-54
2022/01/27 05:18:35;;;;;;;11.15;5.78;;;;;;;0.59;56.26;99673.23;1675691;82;21507;-54
2022/01/27 05:21:02;;;;;;;10.58;5.58;;;;;;;0.59;56.77;99675.82;1689035;82;29330;-54
2022/01/27 05:23:29;;;;;;;7.50;4.75;;;;;;;0.54;56.47;99676.25;1691228;84;21463;-54
2022/01/27 05:25:56;;;;;;;6.43;5.47;;;;;;;0.49;56.51;99676.68;1681983;82;21566;-54
2022/01/27 05:28:22;;;;;;;8.08;5.35;;;;;;;0.48;56.70;99679.71;1680837;82;22529;-54
2022/01/27 05:30:49;;;;;;;8.35;5.05;;;;;;;0.46;56.85;99678.00;1687374;82;21605;-55
2022/01/27 05:33:15;;;;;;;7.50;5.25;;;;;;;0.42;56.65;99682.75;1681793;84;21492;-54
2022/01/27 05:35:45;;;;;;;8.05;4.65;;;;;;;0.37;56.64;99673.69;1691227;82;21436;-56
2022/01/27 05:38:10;;;;;;;7.55;5.05;;;;;;;0.38;56.81;99672.40;1721970;80;21530;-54
2022/01/27 05:40:37;;;;;;;9.78;5.50;;;;;;;0.45;56.78;99674.97;1699190;82;21632;-55
2022/01/27 05:43:04;;;;;;;9.80;5.83;;;;;;;0.45;56.79;99675.82;1718448;82;21552;-54
2022/01/27 05:45:31;;;;;;;8.70;5.53;;;;;;;0.42;56.70;99678.44;1690593;83;21355;-55
2022/01/27 05:47:57;;;;;;;10.18;6.10;;;;;;;0.37;56.71;99671.95;1693615;83;21376;-55
2022/01/27 05:50:25;;;;;;;10.80;6.40;;;;;;;0.36;56.95;99674.56;1694931;83;21485;-54
2022/01/27 05:52:51;;;;;;;12.05;5.58;;;;;;;0.30;56.91;99672.84;1689655;83;22431;-55
2022/01/27 05:55:18;;;;;;;10.67;5.43;;;;;;;0.35;56.66;99672.83;1702739;83;20906;-54
2022/01/27 05:57:45;;;;;;;11.43;6.47;;;;;;;0.38;56.59;99670.25;1709953;82;20982;-55
2022/01/27 06:00:12;;;;;;;8.20;5.43;;;;;;;0.43;56.67;99666.35;1724471;82;21431;-55
2022/01/27 06:02:39;;;;;;;10.40;5.90;;;;;;;0.52;56.82;99663.31;1710149;82;21490;-54
2022/01/27 06:05:06;;;;;;;9.90;6.28;;;;;;;0.60;56.99;99665.88;1721532;82;22511;-53
2022/01/27 06:07:33;;;;;;;8.83;5.72;;;;;;;0.58;56.38;99673.67;1720777;82;21438;-53
2022/01/27 06:10:00;;;;;;;9.95;6.28;;;;;;;0.60;56.53;99675.38;1754417;80;21005;-52
2022/01/27 06:12:27;;;;;;;8.58;5.62;;;;;;;0.65;56.81;99671.92;1760361;80;20979;-53
2022/01/27 06:14:54;;;;;;;10.40;5.50;;;;;;;0.73;56.69;99676.63;1759710;80;20930;-53
2022/01/27 06:17:20;;;;;;;12.35;6.10;;;;;;;0.85;56.83;99676.17;1754969;80;21479;-52
2022/01/27 06:19:48;;;;;;;;;;;;;;;0.97;56.52;99673.13;1760712;80;21606;-53
2022/01/27 06:22:15;;;;;;;12.00;6.85;;;;;;;1.03;56.08;99672.68;1756463;80;25536;-53
2022/01/27 06:24:43;;;;;;;11.40;6.40;;;;;;;1.06;55.85;99671.39;1761201;80;21124;-53
2022/01/27 06:27:10;;;;;;;11.48;6.80;;;;;;;1.13;55.89;99665.28;1756207;80;21709;-53
2022/01/27 06:29:38;;;;;;;10.25;6.55;;;;;;;1.23;56.20;99658.37;1759225;80;23201;-53
2022/01/27 06:32:06;;;;;;;10.35;6.42;;;;;;;1.32;56.10;99659.63;1761173;80;21457;-53
2022/01/27 06:34:33;;;;;;;11.55;6.85;;;;;;;1.37;55.90;99664.32;1747780;80;21527;-54
2022/01/27 06:37:00;;;;;;;12.13;7.42;;;;;;;1.44;56.11;99657.39;1754945;80;21359;-53
2022/01/27 06:39:27;;;;;;;11.50;6.92;;;;;;;1.49;55.93;99642.25;1755662;80;21362;-54
2022/01/27 06:41:53;;;;;;;12.63;7.75;;;;;;;1.55;55.78;99634.87;1761951;80;22476;-55
2022/01/27 06:44:19;;;;;;;12.28;7.20;;;;;;;1.65;55.63;99636.96;1751633;80;21374;-54
2022/01/27 06:46:46;;;;;;;11.35;7.12;;;;;;;1.73;55.33;99632.16;1754658;80;21555;-55
2022/01/27 06:49:16;;;;;;;10.90;6.93;;;;;;;1.84;55.35;99637.24;1759788;80;21485;-55
2022/01/27 06:51:42;;;;;;;11.57;6.90;;;;;;;1.92;55.26;99634.17;1757476;80;21343;-55
2022/01/27 06:54:09;;;;;;;9.85;5.90;;;;;;;2.08;55.24;99634.05;1762839;80;22755;-55
2022/01/27 06:56:35;;;;;;;13.60;6.80;;;;;;;2.31;55.07;99626.91;1763942;80;21442;-55
2022/01/27 06:59:03;;;;;;;11.47;6.23;;;;;;;2.31;55.07;99626.91;1766426;80;21875;-54
2022/01/27 07:01:30;;;;;;;11.45;6.62;;;;;;;2.39;54.73;99629.42;1767696;80;21415;-55
2022/01/27 07:03:56;;;;;;;9.23;6.58;;;;;;;2.47;54.52;99628.92;1745763;80;20874;-55
2022/01/27 07:06:23;;;;;;;10.40;6.97;;;;;;;2.45;54.97;99634.58;1764842;80;22744;-55
2022/01/27 07:08:50;;;;;;;11.50;7.07;;;;;;;2.48;54.64;99631.08;1764094;80;21043;-55
2022/01/27 07:11:16;;;;;;;11.10;6.60;;;;;;;2.42;54.58;99625.95;1750492;80;20969;-55
2022/01/27 07:13:44;;;;;;;17.37;9.00;;;;;;;2.51;55.17;99628.02;1762525;80;20945;-55
2022/01/27 07:16:11;;;;;;;12.85;7.72;;;;;;;2.56;55.21;99621.47;1756253;80;21504;-55
2022/01/27 07:18:38;;;;;;;15.72;8.93;;;;;;;2.61;55.36;99620.98;1752399;80;22828;-55
2022/01/27 07:21:05;;;;;;;14.37;8.77;;;;;;;2.72;55.38;99617.83;1757934;80;21499;-55
2022/01/27 07:23:32;;;;;;;13.48;8.05;;;;;;;2.76;54.95;99616.52;1748000;79;20885;-56
2022/01/27 07:25:59;;;;;;;11.55;7.97;;;;;;;2.79;56.04;99618.64;1757542;80;21359;-55
2022/01/27 07:28:25;;;;;;;15.05;8.50;;;;;;;2.79;57.05;99616.45;1762328;80;21343;-55
2022/01/27 07:30:52;;;;;;;13.83;8.18;;;;;;;2.77;58.91;99606.53;1754861;80;23200;-55
2022/01/27 07:33:19;;;;;;;10.38;7.25;;;;;;;2.76;58.18;99604.37;1757305;80;21323;-55
2022/01/27 07:35:45;;;;;;;10.67;7.27;;;;;;;2.79;57.97;99601.76;1765401;80;21529;-54
2022/01/27 07:38:12;;;;;;;12.53;8.70;;;;;;;2.78;56.47;99597.87;1766475;80;21391;-54
2022/01/27 07:40:39;;;;;;;15.65;9.10;;;;;;;2.77;58.26;99589.66;1755299;80;20937;-54
2022/01/27 07:43:05;;;;;;;13.83;8.45;;;;;;;2.80;58.45;99589.63;1754286;80;22720;-54
2022/01/27 07:45:32;;;;;;;18.67;11.18;;;;;;;2.89;58.21;99592.11;1745684;80;21328;-54
2022/01/27 07:47:59;;;;;;;14.10;8.85;;;;;;;2.96;58.48;99588.98;1756385;80;21516;-54
2022/01/27 07:50:30;;;;;;;11.22;7.65;;;;;;;3.05;57.22;99593.65;1756997;80;20968;-54
2022/01/27 07:52:57;;;;;;;13.55;8.60;;;;;;;3.02;56.39;99583.73;1766219;80;20908;-54
2022/01/27 07:55:24;;;;;;;10.53;7.55;;;;;;;3.25;56.18;99579.52;1754175;80;22682;-54
2022/01/27 07:57:51;;;;;;;12.73;7.93;;;;;;;3.41;56.18;99577.55;1764847;80;21478;-54
2022/01/27 08:00:18;;;;;;;10.58;7.97;;;;;;;3.30;56.24;99572.52;1762604;80;21573;-54
2022/01/27 08:02:45;;;;;;;10.18;7.67;;;;;;;3.43;56.46;99577.96;1759692;80;21512;-55
2022/01/27 08:05:12;;;;;;;11.90;8.20;;;;;;;3.55;56.41;99581.26;1756504;80;21331;-55
2022/01/27 08:07:40;;;;;;;12.60;7.85;;;;;;;3.64;56.50;99579.82;1760989;80;22495;-54
2022/01/27 08:10:07;;;;;;;13.00;7.57;;;;;;;3.69;56.66;99581.89;1757179;80;21469;-55
2022/01/27 08:12:40;;;;;;;12.28;8.00;;;;;;;3.73;56.87;99581.40;1760962;80;21525;-55
2022/01/27 08:15:08;;;;;;;12.73;8.50;;;;;;;3.86;57.02;99581.20;1757619;80;21419;-54
2022/01/27 08:17:35;;;;;;;11.22;7.92;;;;;;;3.94;57.06;99578.47;1762186;80;20929;-54
2022/01/27 08:20:04;;;;;;;11.80;8.50;;;;;;;3.89;56.98;99570.72;1768644;80;22500;-53
2022/01/27 08:22:33;;;;;;;10.90;8.18;;;;;;;3.89;58.98;99571.17;1763747;80;21534;-55
2022/01/27 08:25:00;;;;;;;13.68;8.70;;;;;;;3.86;61.38;99578.59;1754218;80;21498;-54
2022/01/27 08:27:30;;;;;;;11.40;8.48;;;;;;;3.90;59.23;99574.20;1757680;80;21510;-54
2022/01/27 08:30:01;;;;;;;13.05;7.92;;;;;;;3.95;57.75;99572.81;1764758;80;21496;-54
2022/01/27 08:32:34;;;;;;;13.30;8.40;;;;;;;3.99;58.04;99574.02;1759371;80;22509;-54
2022/01/27 08:34:53;;;;;;;13.93;8.90;;;;;;;4.01;58.48;99574.00;1721868;82;21007;-54
2022/01/27 08:37:21;;;;;;;9.47;7.83;;;;;;;4.04;58.31;99580.02;1753909;80;20915;-54
2022/01/27 08:39:48;;;;;;;12.13;7.95;;;;;;;4.04;58.63;99572.66;1745086;80;21506;-54
2022/01/27 08:42:15;;;;;;;13.25;8.45;;;;;;;4.08;58.66;99570.41;1761783;79;20892;-54
2022/01/27 08:44:42;;;;;;;11.20;7.83;;;;;;;4.14;58.96;99566.84;1755260;80;22688;-54
2022/01/27 08:47:11;;;;;;;12.47;8.88;;;;;;;4.21;58.71;99564.55;1750121;80;21006;-54
2022/01/27 08:49:38;;;;;;;13.05;8.83;;;;;;;4.31;58.86;99563.48;1754401;80;21379;-54
2022/01/27 08:52:05;;;;;;;12.07;9.23;;;;;;;4.41;58.82;99562.44;1744951;80;21328;-54
2022/01/27 08:54:32;;;;;;;13.68;8.85;;;;;;;4.54;58.69;99560.47;1752563;80;20982;-54
2022/01/27 08:56:58;;;;;;;12.28;8.45;;;;;;;4.72;58.49;99560.98;1744514;80;22429;-54
2022/01/27 08:59:25;;;;;;;12.15;8.45;;;;;;;4.84;58.60;99558.98;1757622;80;21491;-53
2022/01/27 09:01:52;;;;;;;15.80;8.67;;;;;;;4.92;58.53;99553.62;1752122;80;21469;-53
2022/01/27 09:04:19;;;;;;;12.40;8.53;;;;;;;4.88;58.89;99549.36;1747021;80;21522;-54
2022/01/27 09:06:45;;;;;;;15.72;9.75;;;;;;;4.92;58.77;99544.50;1755570;79;20962;-54
2022/01/27 09:09:12;;;;;;;13.80;9.10;;;;;;;4.93;58.95;99540.98;1751825;80;22447;-54
2022/01/27 09:11:39;;;;;;;15.05;9.45;;;;;;;4.93;59.19;99534.47;1756850;80;21396;-54
2022/01/27 09:14:07;;;;;;;13.78;9.73;;;;;;;9.10;53.33;99524.69;1749256;80;20993;-54
2022/01/27 09:16:35;;;;;;;12.95;9.78;;;;;;;5.94;56.17;99525.17;1753159;80;21132;-54
2022/01/27 09:19:03;;;;;;;14.58;9.53;;;;;;;5.62;58.06;99522.92;1752562;80;21539;-54
2022/01/27 09:21:42;;;;;;;15.45;10.00;;;;;;;5.40;59.02;99527.33;1756892;80;22729;-54
2022/01/27 09:23:59;;;;;;;15.18;9.63;;;;;;;5.44;59.12;99514.66;1738422;80;21651;-54
2022/01/27 09:26:40;;;;;;;12.70;9.68;;;;;;;5.49;59.70;99515.83;1761954;80;21479;-55
2022/01/27 09:28:54;;;;;;;15.68;9.78;;;;;;;5.58;59.17;99512.16;1754366;80;21495;-54
2022/01/27 09:31:21;;;;;;;15.83;10.32;;;;;;;5.65;59.80;99514.57;1751205;80;20827;-54
2022/01/27 09:33:47;;;;;;;15.95;10.85;;;;;;;5.62;63.67;99521.16;1755404;80;22484;-55
2022/01/27 09:36:14;;;;;;;15.45;9.68;;;;;;;5.68;60.71;99514.94;1753364;80;21494;-54
2022/01/27 09:38:41;;;;;;;16.53;11.73;;;;;;;5.60;60.73;99518.19;1745399;80;21009;-54
2022/01/27 09:41:08;;;;;;;15.47;10.80;;;;;;;5.82;62.34;99510.23;1741519;80;21740;-54
2022/01/27 09:43:35;;;;;;;18.12;9.98;;;;;;;5.73;60.32;99514.84;1760297;80;21434;-54
2022/01/27 09:46:07;;;;;;;16.30;11.15;;;;;;;8.46;65.72;99509.61;1765498;80;22534;-55
2022/01/27 09:48:40;;;;;;;22.25;15.08;;;;;;;7.13;62.82;99503.97;1757852;80;21492;-54
2022/01/27 09:53:50;;;;;;;16.17;11.35;;;;;;;7.09;58.84;99499.74;1746041;80;21097;-55
2022/01/27 09:56:17;;;;;;;21.87;14.68;;;;;;;7.19;57.85;99497.23;1757133;79;21506;-54
2022/01/27 09:58:44;;;;;;;23.12;15.28;;;;;;;6.96;56.78;99494.03;1762177;80;22508;-56
2022/01/27 10:01:13;;;;;;;19.85;14.30;;;;;;;6.35;57.65;99494.53;1755293;80;21439;-56
2022/01/27 10:04:06;;;;;;;27.62;24.80;;;;;;;6.30;58.63;99497.70;1765485;80;20885;-56
2022/01/27 10:06:33;;;;;;;20.88;15.43;;;;;;;6.22;64.13;99500.08;1758961;80;21463;-55
2022/01/27 10:09:19;;;;;;;19.05;13.85;;;;;;;6.15;65.38;99492.45;1750526;80;21443;-55
2022/01/27 10:11:49;;;;;;;22.48;16.80;;;;;;;6.13;64.25;99491.64;1750747;80;22447;-55
2022/01/27 10:14:25;;;;;;;22.62;16.50;;;;;;;5.99;61.66;99489.38;1756911;80;21395;-55
2022/01/27 10:16:58;;;;;;;27.07;24.23;;;;;;;5.91;64.52;99482.18;1747331;80;21390;-55
2022/01/27 10:19:29;;;;;;;60.12;39.03;;;;;;;5.84;63.61;99480.20;1747266;80;21482;-56
2022/01/27 10:22:01;;;;;;;36.10;24.85;;;;;;;5.81;64.37;99477.20;1754831;80;21004;-55
2022/01/27 10:24:30;;;;;;;23.73;16.52;;;;;;;14.09;47.20;99450.64;1747831;80;22855;-55
2022/01/27 10:27:55;;;;;;;37.78;23.55;;;;;;;14.89;43.18;99441.77;1749827;80;21585;-55
2022/01/27 10:32:57;;;;;;;24.05;16.67;;;;;;;14.53;43.79;99445.76;1754698;80;21981;-54
2022/01/27 10:35:25;;;;;;;113.60;69.72;;;;;;;14.31;42.52;99443.09;1713209;82;21477;-54
2022/01/27 10:38:07;;;;;;;38.33;22.42;;;;;;;14.23;43.16;99444.53;1745558;80;21907;-55
2022/01/27 10:40:41;;;;;;;35.40;19.62;;;;;;;13.94;43.09;99441.87;1716649;82;21696;-55
2022/01/27 10:43:22;;;;;;;296.15;264.15;;;;;;;13.43;42.99;99435.59;1761852;80;21859;-54
2022/01/27 10:46:08;;;;;;;118.62;57.60;;;;;;;13.31;44.87;99434.97;1739160;80;21099;-54
2022/01/27 10:48:35;;;;;;;133.32;61.33;;;;;;;13.31;43.75;99437.13;1753531;79;20911;-57
2022/01/27 10:54:02;;;;;;;90.45;57.05;;;;;;;13.25;43.41;99434.81;1748657;80;21477;-55
2022/01/27 10:56:28;;;;;;;104.15;48.52;;;;;;;13.12;43.42;99435.98;1745095;80;21427;-54
2022/01/27 10:58:57;;;;;;;42.17;23.22;;;;;;;13.40;43.12;99428.68;1746576;80;21469;-54
2022/01/27 11:01:31;;;;;;;71.17;34.33;;;;;;;13.32;45.25;99422.16;1754050;80;21541;-54
2022/01/27 11:04:01;;;;;;;34.50;23.40;;;;;;;13.04;43.62;99414.45;1743217;80;21530;-54
2022/01/27 11:06:31;;;;;;;97.55;52.10;;;;;;;12.77;49.35;99417.70;1755177;80;21431;-54
2022/01/27 11:08:58;;;;;;;56.30;30.48;;;;;;;14.48;47.77;99416.92;1757405;80;21112;-54
2022/01/27 11:11:27;;;;;;;56.90;29.45;;;;;;;13.72;46.83;99413.22;1746093;79;20889;-54
2022/01/27 11:13:55;;;;;;;55.92;43.45;;;;;;;14.15;44.31;99408.83;1721734;82;21519;-54
2022/01/27 11:16:28;;;;;;;129.55;65.60;;;;;;;14.22;44.10;99411.92;1747382;79;22525;-54
2022/01/27 11:18:53;;;;;;;64.27;33.55;;;;;;;13.82;50.97;99412.59;1755529;80;21476;-56
2022/01/27 11:21:30;;;;;;;78.80;38.73;;;;;;;14.18;43.94;99404.69;1732855;80;20966;-54
2022/01/27 11:24:07;;;;;;;82.65;47.17;;;;;;;8.14;54.93;99427.77;1748910;80;21515;-55
2022/01/27 11:26:35;;;;;;;109.03;58.60;;;;;;;7.20;57.58;99419.20;1746123;80;21358;-55
2022/01/27 11:29:02;;;;;;;65.67;35.45;;;;;;;10.21;50.90;99405.00;1747284;79;22745;-55
2022/01/27 11:31:57;;;;;;;123.43;58.07;;;;;;;7.51;57.49;99408.17;1753202;80;21436;-55
2022/01/27 11:34:26;;;;;;;35.05;23.20;;;;;;;7.10;58.55;99411.70;1743252;80;21470;-55
2022/01/27 11:37:04;;;;;;;36.17;25.15;;;;;;;6.85;58.42;99403.80;1716534;80;21370;-55
2022/01/27 11:39:53;;;;;;;69.82;35.40;;;;;;;6.85;59.24;99400.72;1715427;82;21374;-54
2022/01/27 11:42:42;;;;;;;109.63;44.27;;;;;;;6.72;59.07;99393.70;1691558;84;22550;-55
2022/01/27 11:45:26;;;;;;;36.05;22.48;;;;;;;6.65;59.40;99395.25;1721432;81;21713;-54
2022/01/27 11:48:08;;;;;;;59.60;32.35;;;;;;;6.63;59.71;99395.33;1692557;82;21514;-55
2022/01/27 11:50:54;;;;;;;105.95;43.38;;;;;;;6.58;59.62;99387.61;1727123;80;21328;-55
2022/01/27 11:53:45;;;;;;;81.08;38.33;;;;;;;6.37;100.00;99390.88;1728455;80;21534;-54
2022/01/27 11:56:36;;;;;;;65.78;34.23;;;;;;;6.51;100.00;99392.61;1727270;80;22826;-54
2022/01/27 11:59:01;;;;;;;36.03;22.10;;;;;;;6.06;100.00;99388.29;1724722;80;21494;-54
2022/01/27 12:01:34;;;;;;;33.60;22.70;;;;;;;6.48;100.00;99381.39;1720583;82;21558;-54
2022/01/27 12:04:08;;;;;;;37.63;23.70;;;;;;;6.76;100.00;99380.97;1713799;82;21332;-54
2022/01/27 12:06:50;;;;;;;40.80;25.37;;;;;;;6.71;100.00;99384.63;1693798;83;21450;-56
2022/01/27 12:09:27;;;;;;;32.28;19.32;;;;;;;6.63;100.00;99384.88;1726759;82;22897;-54
2022/01/27 12:12:14;;;;;;;35.25;22.42;;;;;;;6.64;85.21;99373.50;1716636;82;21469;-54
2022/01/27 12:14:46;;;;;;;33.20;20.55;;;;;;;6.82;71.46;99382.08;1693387;83;21427;-54
2022/01/27 12:17:17;;;;;;;29.40;20.45;;;;;;;6.74;67.68;99376.25;1724833;82;21494;-54
2022/01/27 12:20:08;;;;;;;28.50;18.65;;;;;;;6.73;67.08;99371.91;1723419;82;21630;-54
2022/01/27 12:22:50;;;;;;;28.87;19.05;;;;;;;6.70;67.01;99375.07;1726732;82;22499;-55
2022/01/27 12:25:14;;;;;;;28.30;18.45;;;;;;;6.80;66.10;99376.52;1690845;83;21521;-54
2022/01/27 12:27:43;;;;;;;33.43;20.43;;;;;;;6.67;72.54;99377.77;1720708;81;21513;-54
2022/01/27 12:30:10;;;;;;;28.00;19.17;;;;;;;6.77;66.55;99376.59;1722532;80;21801;-55
2022/01/27 12:32:37;;;;;;;25.85;18.48;;;;;;;6.22;66.57;99377.36;1728001;80;21493;-55
2022/01/27 12:35:09;;;;;;;30.95;19.85;;;;;;;6.28;65.97;99374.17;1697964;82;22711;-55
2022/01/27 12:37:40;;;;;;;29.80;19.48;;;;;;;6.26;66.22;99377.28;1727792;80;21533;-56
2022/01/27 12:40:21;;;;;;;30.55;20.00;;;;;;;6.28;65.77;99372.41;1728633;80;21503;-55
2022/01/27 12:43:02;;;;;;;30.75;18.85;;;;;;;6.21;65.78;99374.33;1727528;80;21566;-55
2022/01/27 12:45:31;;;;;;;26.05;17.73;;;;;;;7.85;63.43;99372.97;1726789;80;21511;-55
2022/01/27 12:48:08;;;;;;;32.25;20.30;;;;;;;7.19;68.08;99369.10;1721767;80;22356;-56
2022/01/27 12:50:35;;;;;;;28.40;19.23;;;;;;;7.25;64.65;99365.42;1728306;80;21503;-55
2022/01/27 12:53:07;;;;;;;26.17;17.73;;;;;;;7.17;64.86;99368.77;1728299;81;21503;-55
2022/01/27 12:55:35;;;;;;;28.25;18.80;;;;;;;7.32;67.34;99368.70;1729722;82;21396;-54
2022/01/27 12:58:11;;;;;;;31.62;18.87;;;;;;;7.45;67.80;99370.00;1719772;82;21523;-54
2022/01/27 13:00:48;;;;;;;32.50;21.27;;;;;;;7.47;66.05;99371.25;1722459;82;22406;-54
2022/01/27 13:03:15;;;;;;;27.77;18.90;;;;;;;7.36;65.56;99359.84;1722201;82;20922;-54
2022/01/27 13:05:48;;;;;;;28.45;19.95;;;;;;;7.35;69.86;99363.38;1694160;84;21442;-53
2022/01/27 13:08:18;;;;;;;28.95;20.08;;;;;;;7.30;70.83;99355.67;1724574;82;20985;-54
2022/01/27 13:10:53;;;;;;;34.98;21.73;;;;;;;7.21;100.00;99350.75;1716653;82;21574;-54
2022/01/27 13:13:28;;;;;;;33.30;21.30;;;;;;;7.32;92.29;99356.47;1722950;82;22710;-54
2022/01/27 13:16:02;;;;;;;28.05;19.55;;;;;;;7.44;85.87;99357.84;1723970;82;21474;-54
2022/01/27 13:18:41;;;;;;;31.90;20.97;;;;;;;7.57;83.56;99352.58;1715957;82;21474;-55
2022/01/27 13:20:59;;;;;;;29.35;21.55;;;;;;;7.68;80.44;99349.56;1725183;82;21593;-54
2022/01/27 13:26:00;;;;;;;31.27;21.05;;;;;;;7.71;80.59;99348.16;1725620;82;22550;-55
2022/01/27 13:28:34;;;;;;;32.25;21.48;;;;;;;7.75;79.94;99352.36;1728985;80;21415;-54
2022/01/27 13:31:06;;;;;;;31.55;21.23;;;;;;;7.76;76.19;99346.23;1690801;83;20887;-54
2022/01/27 13:33:46;;;;;;;31.27;21.07;;;;;;;7.70;77.21;99343.81;1728419;82;21423;-55
2022/01/27 13:36:24;;;;;;;30.70;21.73;;;;;;;7.63;76.25;99346.27;1722727;82;21493;-55
2022/01/27 13:41:16;;;;;;;30.37;21.12;;;;;;;7.45;81.49;99351.69;1723808;81;22329;-54
2022/01/27 13:41:32;;;;;;;35.83;22.87;;;;;;;7.65;76.66;99344.45;1703837;80;21521;-54
2022/01/27 13:44:17;;;;;;;39.08;24.00;;;;;;;7.69;76.60;99343.43;1690438;83;21456;-54
2022/01/27 13:46:48;;;;;;;29.95;19.65;;;;;;;7.62;76.62;99343.24;1718336;82;21526;-54
2022/01/27 13:49:27;;;;;;;31.15;21.45;;;;;;;7.66;75.99;99340.91;1725990;80;21454;-54
2022/01/27 13:52:10;;;;;;;45.05;30.00;;;;;;;7.76;75.34;99336.20;1709323;82;22630;-54
2022/01/27 13:54:47;;;;;;;36.25;24.43;;;;;;;7.76;74.82;99337.50;1719921;82;21498;-54
2022/01/27 13:57:19;;;;;;;;;;;;;;;7.60;74.12;99337.22;1726915;82;21526;-54
2022/01/27 14:00:08;;;;;;;32.00;22.95;;;;;;;7.66;74.32;99338.30;1725589;81;20586;-54
2022/01/27 14:02:34;;;;;;;31.77;22.85;;;;;;;7.76;73.27;99334.89;1727891;80;21470;-55
2022/01/27 14:05:21;;;;;;;30.35;22.48;;;;;;;8.93;72.88;99324.74;1726322;81;21465;-54
2022/01/27 14:07:57;;;;;;;33.67;23.52;;;;;;;8.49;70.13;99325.20;1729212;81;21487;-54
2022/01/27 14:10:28;;;;;;;34.53;24.80;;;;;;;8.43;70.06;99317.59;1681621;82;21584;-54
2022/01/27 14:13:09;;;;;;;43.58;32.38;;;;;;;8.42;70.14;99315.87;1727717;80;21514;-54
2022/01/27 14:15:45;;;;;;;36.05;26.52;;;;;;;8.45;69.54;99314.45;1695297;82;21522;-54
2022/01/27 14:18:15;;;;;;;36.00;26.30;;;;;;;8.46;69.30;99310.94;1723622;81;22417;-55
2022/01/27 14:20:56;;;;;;;33.90;24.85;;;;;;;8.35;71.40;99324.41;1725086;80;20862;-57
2022/01/27 14:29:12;;;;;;;35.23;24.87;;;;;;;8.30;70.06;99318.49;1723697;82;21394;-55
2022/01/27 14:31:42;;;;;;;33.50;24.20;;;;;;;8.15;71.69;99314.70;1711652;82;22340;-55
2022/01/27 14:34:09;;;;;;;34.35;23.38;;;;;;;8.14;70.23;99320.39;1712236;82;20898;-54
2022/01/27 14:36:40;;;;;;;34.00;23.05;;;;;;;7.68;70.82;99319.47;1680181;84;28672;-54
2022/01/27 14:39:05;;;;;;;31.48;21.82;;;;;;;7.74;71.22;99316.65;1716797;82;21415;-55
2022/01/27 14:41:32;;;;;;;30.15;22.98;;;;;;;7.91;69.88;99312.10;1726338;82;21435;-55
2022/01/27 14:44:00;;;;;;;34.08;23.50;;;;;;;7.90;71.84;99310.38;1712917;82;21454;-55